Time;durP1;ratioP1;P1;durP2;ratioP2;P2;SDS_P1;SDS_P2;PMS_P1;PMS_P2;Temp;Humidity;BMP_temperature;BMP_pressure;BME280_temperature;BME280_humidity;BME280_pressure;Samples;Min_cycle;Max_cycle;Signal;HPM_P1;HPM_P2
2022/11/26 00:00:27;;;;;;;25.00;10.50;;;;;;;2.77;96.78;101489.38;5017924;28;20232;-66
2022/11/26 00:02:53;;;;;;;27.53;12.00;;;;;;;3.08;97.23;101491.28;5028873;28;20202;-65
2022/11/26 00:05:21;;;;;;;25.70;11.90;;;;;;;2.98;96.77;101494.16;5015674;28;20207;-65
2022/11/26 00:07:53;;;;;;;27.23;13.03;;;;;;;2.89;96.72;101494.50;5019058;28;20259;-65
2022/11/26 00:10:26;;;;;;;31.87;14.10;;;;;;;2.98;96.55;101491.53;5021963;28;20226;-64
2022/11/26 00:12:53;;;;;;;24.63;12.60;;;;;;;2.75;96.11;101493.63;5021018;28;20678;-65
2022/11/26 00:15:30;;;;;;;24.77;10.83;;;;;;;2.61;95.91;101504.94;5019308;28;20230;-64
2022/11/26 00:17:56;;;;;;;26.80;11.70;;;;;;;2.51;96.09;101503.47;5027877;28;20225;-65
2022/11/26 00:20:29;;;;;;;20.97;8.60;;;;;;;2.45;96.25;101515.25;5003785;28;20288;-67
2022/11/26 00:23:00;;;;;;;21.03;10.57;;;;;;;2.40;96.49;101517.56;5020764;28;20242;-66
2022/11/26 00:25:36;;;;;;;26.97;13.03;;;;;;;2.46;96.52;101527.50;5012119;28;20285;-64
2022/11/26 00:28:02;;;;;;;28.00;11.77;;;;;;;2.34;96.60;101526.72;5018684;28;20239;-65
2022/11/26 00:30:28;;;;;;;28.03;12.93;;;;;;;2.31;96.52;101537.88;5014452;28;20611;-65
2022/11/26 00:32:55;;;;;;;24.53;10.03;;;;;;;2.26;96.50;101541.91;5021120;28;20254;-65
2022/11/26 00:35:22;;;;;;;30.27;10.63;;;;;;;2.35;96.95;101531.13;5019029;28;20195;-64
2022/11/26 00:37:56;;;;;;;18.57;7.57;;;;;;;2.32;96.96;101529.22;5007762;28;20231;-65
2022/11/26 00:40:26;;;;;;;17.03;7.40;;;;;;;2.44;96.91;101545.72;5020575;28;20228;-65
2022/11/26 00:42:53;;;;;;;22.17;7.37;;;;;;;2.42;97.03;101546.44;5019620;28;20243;-65
2022/11/26 00:45:28;;;;;;;20.37;8.50;;;;;;;2.46;97.05;101551.94;5014236;28;20213;-66
2022/11/26 00:48:00;;;;;;;19.60;6.30;;;;;;;2.76;97.17;101557.28;5017040;28;20303;-65
2022/11/26 00:50:32;;;;;;;16.93;6.57;;;;;;;2.82;97.58;101555.09;5015922;28;20283;-66
2022/11/26 00:52:59;;;;;;;18.03;5.83;;;;;;;2.89;97.79;101559.00;5017504;28;20262;-65
2022/11/26 00:55:31;;;;;;;15.23;5.73;;;;;;;2.85;97.39;101557.91;5021604;28;20646;-65
2022/11/26 00:57:58;;;;;;;20.37;6.03;;;;;;;2.86;97.42;101550.97;5018092;28;20300;-65
2022/11/26 01:00:28;;;;;;;19.27;5.80;;;;;;;2.79;97.18;101553.16;5020518;28;20196;-65
2022/11/26 01:02:55;;;;;;;16.77;6.73;;;;;;;2.76;97.23;101565.16;5020047;28;20274;-65
2022/11/26 01:05:24;;;;;;;17.40;5.80;;;;;;;2.74;97.11;101564.16;5023251;28;20242;-65
2022/11/26 01:07:51;;;;;;;20.57;5.90;;;;;;;2.71;96.99;101563.94;5017811;28;20219;-65
2022/11/26 01:10:21;;;;;;;14.90;5.87;;;;;;;2.65;96.93;101574.03;5019681;28;20610;-65
2022/11/26 01:12:48;;;;;;;20.27;6.47;;;;;;;2.74;97.12;101580.75;5019543;28;20302;-65
2022/11/26 01:15:16;;;;;;;19.60;6.80;;;;;;;2.67;97.09;101577.66;5020412;28;20254;-65
2022/11/26 01:17:42;;;;;;;14.47;5.80;;;;;;;2.66;97.18;101588.91;5013109;28;20318;-64
2022/11/26 01:20:29;;;;;;;11.37;5.83;;;;;;;2.67;97.09;101595.94;5016612;28;21808;-65
2022/11/26 01:22:57;;;;;;;12.17;5.80;;;;;;;2.61;97.28;101593.84;5019279;28;20290;-65
2022/11/26 01:25:25;;;;;;;19.37;5.47;;;;;;;2.51;97.01;101592.38;5016245;28;20199;-65
2022/11/26 01:27:52;;;;;;;9.93;5.20;;;;;;;2.50;96.88;101606.25;5015230;28;20315;-66
2022/11/26 01:30:22;;;;;;;17.07;5.70;;;;;;;2.66;97.49;101608.13;5020371;28;20203;-65
2022/11/26 01:32:49;;;;;;;14.23;5.23;;;;;;;2.59;97.18;101608.53;5018140;28;20246;-66
2022/11/26 01:35:17;;;;;;;18.00;5.40;;;;;;;2.63;97.01;101617.47;5014662;28;20644;-66
2022/11/26 01:37:45;;;;;;;21.33;6.10;;;;;;;2.68;97.26;101619.59;5016531;28;20419;-66
2022/11/26 01:40:30;;;;;;;15.80;5.20;;;;;;;2.68;97.29;101622.19;5017487;28;20275;-66
2022/11/26 01:43:29;;;;;;;19.53;5.70;;;;;;;2.69;97.01;101629.25;5017526;28;20220;-68
2022/11/26 01:45:56;;;;;;;15.80;5.13;;;;;;;2.74;97.50;101626.91;5003935;28;20408;-65
2022/11/26 01:48:33;;;;;;;18.43;5.47;;;;;;;2.79;97.69;101629.03;5021269;28;20211;-63
2022/11/26 01:51:02;;;;;;;18.03;5.60;;;;;;;2.78;97.41;101632.44;5017578;28;20844;-65
2022/11/26 01:53:32;;;;;;;19.07;5.83;;;;;;;2.78;97.11;101635.06;5013459;28;20207;-64
2022/11/26 01:56:04;;;;;;;20.57;5.73;;;;;;;2.83;97.59;101640.63;5015324;28;20200;-65
2022/11/26 01:58:40;;;;;;;16.47;5.90;;;;;;;2.84;97.51;101647.66;5013755;28;20635;-64
2022/11/26 02:01:07;;;;;;;15.87;5.10;;;;;;;2.92;97.59;101649.03;5014706;28;20188;-63
2022/11/26 02:03:41;;;;;;;20.47;5.27;;;;;;;2.95;97.54;101657.09;5020442;28;20260;-65
2022/11/26 02:06:14;;;;;;;18.50;4.67;;;;;;;3.04;97.53;101643.69;5017585;28;20203;-65
2022/11/26 02:08:41;;;;;;;12.60;5.13;;;;;;;3.00;97.36;101646.91;5012392;28;20314;-65
2022/11/26 02:11:18;;;;;;;17.10;4.83;;;;;;;3.25;97.71;101652.91;5009973;28;20228;-64
2022/11/26 02:13:48;;;;;;;24.03;5.97;;;;;;;3.23;97.29;101651.91;5017042;28;20291;-65
2022/11/26 02:16:32;;;;;;;14.23;4.90;;;;;;;3.06;97.16;101650.81;5014962;28;20250;-64
2022/11/26 02:19:26;;;;;;;13.67;5.67;;;;;;;3.00;96.91;101665.22;5024778;28;20399;-64
2022/11/26 02:22:10;;;;;;;15.00;5.13;;;;;;;2.88;96.72;101667.97;5021292;28;20198;-65
2022/11/26 02:24:48;;;;;;;15.03;4.50;;;;;;;2.89;97.18;101674.09;5018110;28;20230;-64
2022/11/26 02:27:43;;;;;;;15.07;5.03;;;;;;;2.97;97.39;101673.78;5013869;28;20294;-64
2022/11/26 02:30:14;;;;;;;20.83;5.30;;;;;;;3.19;97.44;101685.63;5018497;28;20539;-64
2022/11/26 02:33:02;;;;;;;21.97;5.40;;;;;;;3.16;97.27;101686.31;5010102;28;20302;-64
2022/11/26 02:35:40;;;;;;;16.97;5.20;;;;;;;3.12;97.28;101676.47;5021196;28;20230;-64
2022/11/26 02:38:18;;;;;;;17.13;4.97;;;;;;;3.11;97.36;101683.41;5016579;28;20491;-65
2022/11/26 02:40:44;;;;;;;17.00;4.90;;;;;;;3.02;97.12;101687.16;5015013;28;20249;-65
2022/11/26 02:43:13;;;;;;;14.80;5.27;;;;;;;2.94;96.69;101685.78;5013981;28;20282;-64
2022/11/26 02:45:43;;;;;;;18.03;4.57;;;;;;;2.87;96.78;101689.72;5014189;28;20222;-66
2022/11/26 02:48:15;;;;;;;21.87;5.03;;;;;;;2.80;96.97;101667.47;5020136;28;20707;-64
2022/11/26 02:50:49;;;;;;;19.73;4.83;;;;;;;2.83;97.00;101688.59;5022632;28;20286;-64
2022/11/26 02:53:20;;;;;;;16.47;4.80;;;;;;;2.78;97.14;101692.59;5028144;28;20239;-66
2022/11/26 02:55:49;;;;;;;13.77;5.00;;;;;;;2.72;97.23;101693.91;5023258;28;20755;-64
2022/11/26 02:58:17;;;;;;;13.23;4.90;;;;;;;2.65;97.11;101687.38;5024792;28;20302;-65
2022/11/26 03:00:46;;;;;;;15.30;4.73;;;;;;;2.60;96.99;101688.78;5022545;28;20207;-64
2022/11/26 03:03:25;;;;;;;15.63;4.93;;;;;;;2.54;96.95;101684.88;5029318;28;20236;-64
2022/11/26 03:05:59;;;;;;;15.50;5.13;;;;;;;2.55;96.99;101697.16;5027484;28;20199;-66
2022/11/26 03:08:27;;;;;;;10.90;4.60;;;;;;;2.47;96.81;101696.66;5027580;28;20223;-65
2022/11/26 03:10:53;;;;;;;14.73;5.10;;;;;;;2.37;96.81;101694.19;5019347;28;20751;-64
2022/11/26 03:13:20;;;;;;;14.07;5.00;;;;;;;2.26;96.79;101697.81;5018090;28;20396;-63
2022/11/26 03:15:46;;;;;;;13.97;5.17;;;;;;;2.20;96.88;101693.97;5006035;28;20771;-64
2022/11/26 03:18:13;;;;;;;12.60;4.90;;;;;;;2.19;97.03;101696.50;5029253;28;20313;-65
2022/11/26 03:20:39;;;;;;;18.13;4.80;;;;;;;2.17;97.15;101701.63;5017744;28;20290;-64
2022/11/26 03:23:06;;;;;;;18.50;5.00;;;;;;;2.33;97.23;101693.09;5022260;28;20659;-64
2022/11/26 03:25:33;;;;;;;17.87;4.87;;;;;;;2.33;97.32;101697.41;5021624;28;20750;-64
2022/11/26 03:28:00;;;;;;;15.20;4.27;;;;;;;2.28;97.10;101681.41;5024283;28;20217;-65
2022/11/26 03:30:27;;;;;;;18.20;4.70;;;;;;;2.34;97.37;101699.22;5028127;28;20282;-66
2022/11/26 03:32:53;;;;;;;14.77;4.83;;;;;;;2.55;97.38;101695.44;5018472;28;20255;-64
2022/11/26 03:35:20;;;;;;;11.37;4.73;;;;;;;2.75;97.75;101697.63;5022159;28;20725;-62
2022/11/26 03:37:46;;;;;;;18.33;5.03;;;;;;;3.02;97.37;101703.78;5028629;28;20258;-64
2022/11/26 03:40:15;;;;;;;19.97;4.83;;;;;;;2.97;96.95;101699.06;5024457;28;20691;-64
2022/11/26 03:42:42;;;;;;;18.73;5.10;;;;;;;2.69;96.83;101672.78;5021797;28;20195;-64
2022/11/26 03:45:10;;;;;;;12.50;4.97;;;;;;;2.63;96.68;101694.22;5023107;28;20754;-64
2022/11/26 03:47:37;;;;;;;16.17;5.23;;;;;;;2.56;96.93;101686.78;5025627;28;20313;-64
2022/11/26 03:50:05;;;;;;;12.43;4.70;;;;;;;2.58;96.99;101685.19;5040120;28;20287;-66
2022/11/26 03:52:32;;;;;;;24.20;5.50;;;;;;;2.63;97.19;101685.47;5020546;28;20222;-66
2022/11/26 03:54:58;;;;;;;16.90;5.93;;;;;;;2.73;97.53;101687.88;5026185;28;20197;-64
2022/11/26 03:57:25;;;;;;;18.23;5.90;;;;;;;2.91;97.21;101691.72;5019050;28;20801;-64
2022/11/26 03:59:51;;;;;;;16.67;5.30;;;;;;;2.96;97.12;101684.16;5021465;28;20638;-64
2022/11/26 04:02:17;;;;;;;11.47;5.17;;;;;;;2.92;96.61;101672.59;5013572;28;20298;-63
2022/11/26 04:04:44;;;;;;;25.17;6.17;;;;;;;2.79;96.69;101683.94;5017555;28;20282;-66
2022/11/26 04:07:10;;;;;;;14.30;5.30;;;;;;;2.64;96.56;101684.66;5017124;28;20234;-64
2022/11/26 04:09:37;;;;;;;15.83;5.40;;;;;;;2.50;96.47;101679.44;5009322;28;20232;-66
2022/11/26 04:12:03;;;;;;;20.53;5.30;;;;;;;2.36;96.54;101688.06;5021015;28;20306;-64
2022/11/26 04:14:29;;;;;;;15.47;5.60;;;;;;;2.26;96.64;101682.13;5019894;28;20279;-64
2022/11/26 04:16:56;;;;;;;23.37;6.47;;;;;;;2.19;96.85;101691.25;5016480;28;20287;-64
2022/11/26 04:19:22;;;;;;;12.17;5.07;;;;;;;2.10;96.71;101685.41;5023899;28;20703;-64
2022/11/26 04:21:49;;;;;;;12.57;5.17;;;;;;;2.05;96.90;101692.94;5013675;28;20664;-64
2022/11/26 04:24:15;;;;;;;12.03;5.90;;;;;;;2.00;96.66;101703.84;5022369;28;20229;-66
2022/11/26 04:26:42;;;;;;;15.17;5.27;;;;;;;1.98;97.05;101706.38;5014333;28;20294;-65
2022/11/26 04:29:08;;;;;;;12.60;5.40;;;;;;;1.98;96.75;101714.19;5022696;28;20653;-64
2022/11/26 04:31:34;;;;;;;16.97;5.10;;;;;;;1.91;96.91;101719.81;5019409;28;20848;-64
2022/11/26 04:34:01;;;;;;;16.63;5.40;;;;;;;1.88;96.95;101719.59;5015136;28;20724;-65
2022/11/26 04:36:27;;;;;;;11.67;5.13;;;;;;;1.74;96.70;101717.75;5004899;28;20194;-63
2022/11/26 04:38:54;;;;;;;20.83;5.50;;;;;;;1.67;96.82;101708.59;5031135;23;20785;-69
2022/11/26 04:41:20;;;;;;;14.90;5.43;;;;;;;1.73;97.14;101722.06;4988767;28;20284;-69
2022/11/26 04:43:46;;;;;;;15.03;6.13;;;;;;;1.82;97.49;101727.91;4988482;28;20934;-71
2022/11/26 04:46:13;;;;;;;15.57;6.27;;;;;;;1.88;97.52;101736.19;4985999;28;20198;-69
2022/11/26 04:48:39;;;;;;;17.63;5.90;;;;;;;1.92;97.62;101731.16;4985323;28;20351;-70
2022/11/26 04:51:05;;;;;;;13.70;6.07;;;;;;;1.89;97.22;101727.53;4988562;28;20290;-69
2022/11/26 04:53:32;;;;;;;22.53;6.00;;;;;;;1.85;97.19;101740.28;4989803;28;20629;-69
2022/11/26 04:55:58;;;;;;;14.03;5.80;;;;;;;1.72;97.08;101738.53;4988063;28;20678;-69
2022/11/26 04:58:24;;;;;;;17.87;5.50;;;;;;;1.64;96.65;101747.53;4990397;28;20298;-69
2022/11/26 05:00:51;;;;;;;13.40;5.40;;;;;;;1.52;96.87;101741.44;4988808;28;20469;-71
2022/11/26 05:03:18;;;;;;;10.00;5.77;;;;;;;1.48;97.11;101763.78;4988111;28;20199;-71
2022/11/26 05:05:46;;;;;;;18.27;6.10;;;;;;;1.59;97.43;101769.78;4986425;28;20254;-69
2022/11/26 05:08:12;;;;;;;15.53;5.53;;;;;;;1.63;97.43;101771.84;4990274;28;20209;-69
2022/11/26 05:10:38;;;;;;;16.23;6.03;;;;;;;1.65;97.27;101775.47;4988695;28;20213;-69
2022/11/26 05:13:05;;;;;;;18.17;5.97;;;;;;;1.62;97.54;101779.56;4982947;28;20744;-69
2022/11/26 05:15:31;;;;;;;12.47;5.17;;;;;;;1.64;97.46;101784.09;4986857;28;20204;-69
2022/11/26 05:17:58;;;;;;;12.87;5.27;;;;;;;1.64;97.58;101791.94;4990004;28;20291;-66
2022/11/26 05:20:24;;;;;;;17.50;6.70;;;;;;;1.63;97.17;101802.25;4987424;28;20285;-69
2022/11/26 05:22:50;;;;;;;15.83;6.50;;;;;;;1.83;97.53;101807.19;4986539;28;20618;-69
2022/11/26 05:25:17;;;;;;;23.33;6.17;;;;;;;1.73;97.51;101802.09;4989782;28;20299;-69
2022/11/26 05:27:43;;;;;;;13.37;5.60;;;;;;;1.60;96.89;101802.91;4989743;28;20196;-69
2022/11/26 05:30:10;;;;;;;19.00;5.50;;;;;;;1.48;96.81;101802.03;4986349;28;20263;-69
2022/11/26 05:32:36;;;;;;;12.13;4.90;;;;;;;1.36;96.59;101803.78;4987328;28;20218;-69
2022/11/26 05:35:03;;;;;;;16.07;6.00;;;;;;;1.29;96.88;101814.56;4989667;28;20204;-71
2022/11/26 05:37:30;;;;;;;9.70;4.93;;;;;;;1.24;97.03;101816.84;4985851;28;20233;-69
2022/11/26 05:39:56;;;;;;;14.43;5.33;;;;;;;1.17;96.58;101815.47;4987074;28;20225;-71
2022/11/26 05:42:22;;;;;;;14.47;5.10;;;;;;;1.07;96.93;101822.50;4985601;28;20750;-69
2022/11/26 05:44:49;;;;;;;22.13;5.50;;;;;;;1.02;96.86;101824.78;4982934;28;20268;-71
2022/11/26 05:47:15;;;;;;;17.57;5.27;;;;;;;0.95;97.00;101819.91;4983198;28;20199;-68
2022/11/26 05:49:41;;;;;;;13.90;5.57;;;;;;;0.96;97.03;101815.59;4987117;28;20596;-71
2022/11/26 05:52:08;;;;;;;11.73;5.47;;;;;;;1.04;97.31;101817.97;4986504;28;20284;-69
2022/11/26 05:54:34;;;;;;;13.63;5.43;;;;;;;1.19;97.25;101828.63;4983875;28;20649;-69
2022/11/26 05:57:01;;;;;;;23.03;6.37;;;;;;;1.30;97.54;101832.94;4982259;28;20208;-69
2022/11/26 05:59:28;;;;;;;15.27;5.77;;;;;;;1.26;97.33;101817.88;4983298;28;20225;-67
2022/11/26 06:01:54;;;;;;;22.37;6.80;;;;;;;1.35;97.29;101826.34;4988041;28;20208;-69
2022/11/26 06:04:21;;;;;;;15.97;6.47;;;;;;;1.49;97.12;101838.69;4988097;28;20196;-70
2022/11/26 06:06:48;;;;;;;14.97;5.97;;;;;;;1.52;96.56;101843.22;4986831;28;20292;-70
2022/11/26 06:09:14;;;;;;;20.23;6.00;;;;;;;1.52;96.31;101844.13;4983136;28;20222;-69
2022/11/26 06:11:40;;;;;;;21.70;6.53;;;;;;;1.26;96.23;101833.53;4983416;28;20298;-69
2022/11/26 06:14:09;;;;;;;12.40;5.37;;;;;;;1.22;96.37;101837.59;4980884;28;20218;-69
2022/11/26 06:16:35;;;;;;;12.80;5.40;;;;;;;1.08;96.38;101843.47;4982953;28;20205;-69
2022/11/26 06:19:02;;;;;;;12.27;5.13;;;;;;;1.01;96.61;101843.81;4980417;28;20300;-67
2022/11/26 06:21:28;;;;;;;11.80;5.80;;;;;;;0.96;96.82;101844.28;4987415;28;20295;-69
2022/11/26 06:23:55;;;;;;;12.63;5.40;;;;;;;1.14;97.27;101846.53;4987969;28;20280;-70
2022/11/26 06:26:25;;;;;;;13.33;5.50;;;;;;;1.21;96.91;101855.75;4988072;28;20214;-69
2022/11/26 06:28:51;;;;;;;12.90;5.37;;;;;;;1.38;96.77;101854.38;4982198;28;20259;-71
2022/11/26 06:31:18;;;;;;;13.00;4.57;;;;;;;1.23;96.35;101855.06;4983245;28;20626;-69
2022/11/26 06:33:45;;;;;;;16.10;5.03;;;;;;;1.25;96.17;101857.81;4983435;28;20251;-69
2022/11/26 06:36:11;;;;;;;13.40;5.37;;;;;;;1.25;95.99;101865.63;4950158;28;20271;-68
2022/11/26 06:38:37;;;;;;;12.73;5.83;;;;;;;1.13;95.99;101865.59;4983302;28;20236;-69
2022/11/26 06:41:06;;;;;;;10.40;4.80;;;;;;;1.16;96.22;101876.25;4981718;28;20239;-71
2022/11/26 06:43:33;;;;;;;17.17;4.97;;;;;;;1.13;95.93;101881.25;4984821;28;20223;-69
2022/11/26 06:46:02;;;;;;;16.30;5.17;;;;;;;1.08;95.68;101879.09;4979105;28;20202;-69
2022/11/26 06:48:29;;;;;;;10.70;4.80;;;;;;;1.00;95.83;101898.50;4986197;28;20287;-67
2022/11/26 06:50:56;;;;;;;14.43;5.60;;;;;;;0.84;95.68;101899.03;4979476;28;20294;-71
2022/11/26 06:53:22;;;;;;;10.40;5.40;;;;;;;0.65;95.78;101898.41;4985622;28;20312;-69
2022/11/26 06:55:49;;;;;;;16.50;5.53;;;;;;;0.47;95.56;101906.63;4965709;28;20200;-69
2022/11/26 06:58:15;;;;;;;16.23;6.13;;;;;;;0.39;96.24;101920.72;4984542;28;20196;-69
2022/11/26 07:00:41;;;;;;;22.77;6.23;;;;;;;0.47;96.83;101909.22;4984876;28;20389;-70
2022/11/26 07:03:08;;;;;;;14.40;5.80;;;;;;;0.41;96.57;101913.97;4985594;28;20287;-68
2022/11/26 07:05:35;;;;;;;11.03;5.17;;;;;;;0.52;97.09;101917.41;4984850;28;20297;-69
2022/11/26 07:08:02;;;;;;;14.60;6.00;;;;;;;0.48;96.81;101926.69;4986318;28;20236;-69
2022/11/26 07:10:28;;;;;;;11.83;5.73;;;;;;;0.41;96.85;101915.66;4984507;28;20220;-68
2022/11/26 07:12:55;;;;;;;10.70;5.50;;;;;;;0.45;97.13;101923.84;4986437;28;20256;-68
2022/11/26 07:15:21;;;;;;;13.50;5.60;;;;;;;0.52;97.26;101926.13;4982839;28;20276;-68
2022/11/26 07:17:48;;;;;;;20.13;6.70;;;;;;;0.65;97.33;101924.47;4986854;28;20292;-69
2022/11/26 07:20:14;;;;;;;15.07;5.43;;;;;;;0.81;97.82;101925.78;4988411;28;20700;-71
2022/11/26 07:22:40;;;;;;;13.43;6.10;;;;;;;0.91;97.92;101920.47;4987032;28;20190;-68
2022/11/26 07:25:07;;;;;;;18.97;6.00;;;;;;;1.08;97.94;101923.44;4983401;28;20283;-69
2022/11/26 07:27:38;;;;;;;12.13;5.90;;;;;;;1.03;97.65;101930.03;4988063;28;20196;-69
2022/11/26 07:30:05;;;;;;;16.03;5.80;;;;;;;0.99;97.58;101934.09;4988034;28;20753;-69
2022/11/26 07:32:32;;;;;;;19.03;5.97;;;;;;;0.96;97.59;101936.47;4984274;28;20279;-69
2022/11/26 07:35:00;;;;;;;15.90;5.40;;;;;;;0.91;97.54;101938.72;4985172;28;20225;-68
2022/11/26 07:37:27;;;;;;;17.03;6.17;;;;;;;0.88;97.40;101943.72;4988445;28;20611;-69
2022/11/26 07:39:53;;;;;;;15.83;6.53;;;;;;;0.85;97.19;101948.69;4989439;28;20288;-69
2022/11/26 07:42:20;;;;;;;15.47;5.83;;;;;;;0.84;97.33;101940.75;4973553;28;20339;-70
2022/11/26 07:44:46;;;;;;;17.80;6.63;;;;;;;0.86;97.30;101947.91;4985834;28;20228;-69
2022/11/26 07:47:12;;;;;;;16.53;6.90;;;;;;;1.12;97.55;101954.19;4977284;28;20201;-68
2022/11/26 07:49:39;;;;;;;15.23;6.87;;;;;;;1.31;97.30;101956.50;4984629;28;20216;-71
2022/11/26 07:52:05;;;;;;;20.87;8.80;;;;;;;1.49;96.86;101950.03;4989268;28;20214;-69
2022/11/26 07:54:31;;;;;;;17.10;6.80;;;;;;;1.39;96.73;101958.88;4985207;28;20311;-67
2022/11/26 07:56:58;;;;;;;14.40;6.50;;;;;;;1.32;96.66;101964.44;4984087;28;20275;-69
2022/11/26 07:59:24;;;;;;;19.50;7.50;;;;;;;1.26;96.90;101969.22;4983301;28;20274;-70
2022/11/26 08:01:50;;;;;;;15.77;7.00;;;;;;;1.25;96.84;101970.00;4979803;28;20235;-69
2022/11/26 08:04:17;;;;;;;15.80;7.07;;;;;;;1.28;97.29;101971.94;4985682;28;20200;-69
2022/11/26 08:06:43;;;;;;;17.03;7.60;;;;;;;1.32;97.36;101968.75;4977437;28;20202;-69
2022/11/26 08:09:10;;;;;;;19.27;8.30;;;;;;;1.57;97.74;101961.97;4979660;28;20219;-70
2022/11/26 08:11:36;;;;;;;19.50;8.33;;;;;;;1.76;97.87;101966.84;4988462;28;20281;-69
2022/11/26 08:14:09;;;;;;;19.93;8.13;;;;;;;1.74;97.62;101961.53;4985966;28;20304;-70
2022/11/26 08:16:36;;;;;;;18.40;7.77;;;;;;;1.76;97.40;101964.25;4990506;28;20230;-69
2022/11/26 08:19:11;;;;;;;19.80;7.53;;;;;;;1.79;97.46;101968.00;4985717;28;20830;-69
2022/11/26 08:21:38;;;;;;;14.50;6.90;;;;;;;1.91;97.69;101964.44;4988381;28;20204;-69
2022/11/26 08:24:06;;;;;;;20.13;9.03;;;;;;;2.18;97.86;101963.84;4989549;28;20205;-69
2022/11/26 08:26:33;;;;;;;25.27;9.43;;;;;;;2.27;97.29;101971.44;4970819;28;20624;-70
2022/11/26 08:29:08;;;;;;;19.00;9.23;;;;;;;2.42;97.36;101967.31;4987950;28;20229;-69
2022/11/26 08:31:35;;;;;;;20.17;9.63;;;;;;;2.43;97.35;101966.53;4987583;28;20200;-69
2022/11/26 08:34:11;;;;;;;18.17;9.03;;;;;;;2.42;97.24;101976.06;4987304;28;20311;-69
2022/11/26 08:36:38;;;;;;;21.70;8.93;;;;;;;2.41;97.13;101979.50;4987757;28;20322;-69
2022/11/26 08:39:04;;;;;;;22.53;10.13;;;;;;;2.47;97.51;101990.38;4988502;28;20321;-70
2022/11/26 08:41:31;;;;;;;19.07;9.13;;;;;;;2.74;97.48;101987.88;4988166;28;20733;-69
2022/11/26 08:43:57;;;;;;;21.20;8.63;;;;;;;2.90;97.80;101987.25;4986557;28;20678;-69
2022/11/26 08:46:33;;;;;;;21.40;8.03;;;;;;;3.06;97.82;101987.50;4986323;28;20573;-70
2022/11/26 08:48:59;;;;;;;29.90;8.30;;;;;;;3.23;97.84;101979.13;4988677;28;20843;-69
2022/11/26 08:51:26;;;;;;;21.50;7.03;;;;;;;3.54;98.13;101989.03;4987361;28;20204;-69
2022/11/26 08:53:52;;;;;;;40.83;7.70;;;;;;;3.84;98.24;101987.53;4965119;28;20325;-66
2022/11/26 08:56:18;;;;;;;30.23;8.20;;;;;;;3.88;98.34;101982.59;4986108;28;20205;-69
2022/11/26 08:58:45;;;;;;;40.83;9.10;;;;;;;4.01;97.06;101990.50;4983616;28;20314;-70
2022/11/26 09:01:23;;;;;;;34.67;8.33;;;;;;;3.89;97.09;101989.66;4983905;28;21404;-69
2022/11/26 09:03:52;;;;;;;43.50;10.27;;;;;;;3.92;97.51;102000.34;4987335;28;20629;-69
2022/11/26 09:06:20;;;;;;;47.93;8.37;;;;;;;4.00;97.88;102003.47;4986422;28;20243;-69
2022/11/26 09:11:34;;;;;;;55.97;8.77;;;;;;;4.16;97.24;102006.28;4987766;28;20236;-69
2022/11/26 09:14:02;;;;;;;123.70;11.37;;;;;;;4.11;96.62;102012.06;4987328;28;20216;-70
2022/11/26 09:16:28;;;;;;;114.50;11.30;;;;;;;3.99;96.72;102007.78;4981880;28;20664;-69
2022/11/26 09:18:55;;;;;;;80.73;9.17;;;;;;;4.05;97.36;102017.81;4985998;28;20261;-69
2022/11/26 09:21:22;;;;;;;19.60;7.20;;;;;;;4.15;97.17;102024.53;4968589;28;20204;-69
2022/11/26 09:23:48;;;;;;;93.30;10.40;;;;;;;4.29;97.52;102021.09;4989577;28;20250;-68
2022/11/26 09:26:15;;;;;;;30.10;10.07;;;;;;;4.51;97.93;102015.53;4989208;28;20200;-69
2022/11/26 09:28:41;;;;;;;28.43;10.60;;;;;;;4.79;98.07;102021.69;4984815;28;20232;-69
2022/11/26 09:31:07;;;;;;;28.60;11.00;;;;;;;4.93;97.88;102009.44;4977212;28;20747;-68
2022/11/26 09:33:34;;;;;;;24.10;8.80;;;;;;;5.14;97.76;102020.34;4981314;28;20213;-67
2022/11/26 09:36:10;;;;;;;22.27;8.87;;;;;;;5.22;97.52;102025.28;4981578;28;20259;-68
2022/11/26 09:38:36;;;;;;;61.97;11.77;;;;;;;5.14;97.13;102002.88;4984599;28;20720;-67
2022/11/26 09:41:30;;;;;;;29.33;7.60;;;;;;;5.30;97.30;102020.47;4988193;28;20197;-67
2022/11/26 09:44:24;;;;;;;14.77;7.40;;;;;;;5.50;97.56;102013.78;4986272;28;20645;-68
2022/11/26 09:47:08;;;;;;;13.90;7.40;;;;;;;5.81;95.52;102011.25;4987283;28;20193;-68
2022/11/26 09:50:06;;;;;;;17.00;7.10;;;;;;;5.84;95.07;102008.81;4985853;28;20339;-68
2022/11/26 09:52:38;;;;;;;13.47;6.50;;;;;;;5.55;93.88;102005.34;4985333;28;20259;-68
2022/11/26 09:55:17;;;;;;;13.17;6.43;;;;;;;5.45;90.91;102008.25;4987087;28;20228;-68
2022/11/26 09:58:10;;;;;;;9.13;5.60;;;;;;;5.29;92.37;102013.41;4986214;28;20200;-67
2022/11/26 10:00:40;;;;;;;12.43;6.40;;;;;;;4.99;92.92;102018.59;4984781;28;20725;-68
2022/11/26 10:03:32;;;;;;;13.20;6.30;;;;;;;4.95;93.27;101999.94;4987445;28;20673;-68
2022/11/26 10:06:53;;;;;;;11.40;6.30;;;;;;;4.79;93.56;102013.81;4984974;28;20197;-67
2022/11/26 10:09:34;;;;;;;12.63;6.20;;;;;;;4.64;93.08;102020.72;4908112;29;20223;-67
2022/11/26 10:12:22;;;;;;;13.07;6.40;;;;;;;4.88;94.04;102021.38;4987783;28;20236;-67
2022/11/26 10:15:16;;;;;;;13.33;6.60;;;;;;;4.88;93.23;102019.66;4982391;28;20248;-67
2022/11/26 10:18:05;;;;;;;10.60;6.17;;;;;;;4.84;92.99;102016.75;4986470;28;20583;-67
2022/11/26 10:20:52;;;;;;;10.47;5.97;;;;;;;4.86;93.10;102021.28;4988668;28;20636;-67
2022/11/26 10:23:26;;;;;;;11.00;5.97;;;;;;;4.99;94.93;102028.19;4984593;28;20198;-71
2022/11/26 10:26:00;;;;;;;12.43;6.50;;;;;;;5.14;95.70;102022.97;4980219;28;20300;-67
2022/11/26 10:28:34;;;;;;;13.10;7.20;;;;;;;5.34;95.70;102026.00;4987859;28;20569;-68
2022/11/26 10:31:04;;;;;;;14.17;6.47;;;;;;;5.58;95.10;102013.41;4987288;28;20248;-68
2022/11/26 10:33:36;;;;;;;12.53;6.87;;;;;;;5.81;96.12;102025.31;4985361;28;20580;-68
2022/11/26 10:36:07;;;;;;;11.37;6.67;;;;;;;5.93;93.80;102019.88;4983195;28;20225;-68
2022/11/26 10:38:34;;;;;;;10.67;6.67;;;;;;;5.97;93.26;102024.50;4983533;28;20300;-68
2022/11/26 10:41:00;;;;;;;10.97;6.63;;;;;;;6.05;91.01;102023.25;5040284;23;20318;-65
2022/11/26 10:43:26;;;;;;;12.30;6.30;;;;;;;5.87;90.59;102030.00;5024582;28;20224;-65
2022/11/26 10:45:55;;;;;;;14.17;6.27;;;;;;;5.79;91.04;102026.94;5021678;28;20200;-65
2022/11/26 10:48:30;;;;;;;15.97;6.77;;;;;;;5.64;90.94;102026.03;5025871;28;20195;-65
2022/11/26 10:51:14;;;;;;;9.57;5.87;;;;;;;5.46;92.42;102025.84;5008804;28;20337;-65
2022/11/26 10:53:54;;;;;;;13.40;6.53;;;;;;;5.37;91.29;102016.50;5004200;28;20302;-65
2022/11/26 10:56:25;;;;;;;10.07;6.37;;;;;;;5.34;91.24;102010.25;5003838;28;20222;-64
2022/11/26 10:58:56;;;;;;;10.33;6.53;;;;;;;5.40;92.03;102022.84;5005268;28;20569;-64
2022/11/26 11:01:22;;;;;;;12.23;6.00;;;;;;;5.56;92.59;102028.19;5003140;28;20299;-65
2022/11/26 11:03:58;;;;;;;11.57;6.37;;;;;;;5.51;91.15;102026.09;5006474;28;20197;-63
2022/11/26 11:06:39;;;;;;;11.17;6.33;;;;;;;5.65;91.79;102025.22;4999619;28;20214;-64
2022/11/26 11:09:26;;;;;;;13.33;7.10;;;;;;;6.02;93.01;102020.44;5005423;28;20276;-64
2022/11/26 11:12:10;;;;;;;13.27;6.90;;;;;;;6.34;93.09;102014.34;5004429;28;20285;-64
2022/11/26 11:14:39;;;;;;;15.60;9.10;;;;;;;6.43;91.03;102001.75;4993993;28;20818;-64
2022/11/26 11:17:26;;;;;;;14.13;7.27;;;;;;;6.57;90.59;102005.13;4999252;28;20790;-64
2022/11/26 11:19:53;;;;;;;11.00;6.70;;;;;;;6.56;90.31;102006.84;5007202;28;20312;-64
2022/11/26 11:22:20;;;;;;;11.07;6.10;;;;;;;6.64;89.96;102015.16;5008289;28;20276;-64
2022/11/26 11:24:47;;;;;;;9.80;6.17;;;;;;;6.49;89.12;102002.09;5008317;28;20277;-66
2022/11/26 11:27:45;;;;;;;12.77;6.53;;;;;;;6.61;89.48;102001.84;5005704;28;20202;-63
2022/11/26 11:30:26;;;;;;;9.63;5.60;;;;;;;6.70;88.78;101998.81;4954436;28;20293;-64
2022/11/26 11:33:08;;;;;;;12.07;6.00;;;;;;;6.98;89.67;102006.47;5005272;28;20290;-64
2022/11/26 11:35:34;;;;;;;11.97;5.80;;;;;;;7.13;90.82;102002.91;5005481;28;20768;-64
2022/11/26 11:38:01;;;;;;;8.70;5.37;;;;;;;7.27;86.89;101995.78;5008881;28;20200;-64
2022/11/26 11:40:29;;;;;;;11.90;5.20;;;;;;;7.23;85.12;101993.81;5008911;28;20234;-64